Aviation Digital Data Service (ADDS)

Output produced by METARs form (2314 UTC 06 February 2016)
found at http://aviationweather.gov/adds/metars/
 
KLBT 061733Z 0618/0718 05006KT P6SM SCT060 SCT100 
     FM062300 04008KT P6SM VCSH SCT035 BKN050 
     FM070400 01010G18KT P6SM -RA SCT025 OVC050 
     FM071100 02010G20KT 6SM -RASN BR SCT015 OVC025 
     FM071600 36018G25KT 6SM -RA BR OVC015